Clarksdale Fletcher Field Air, MS

5:21 AM CST on December 16, 2019 (GMT -0600)
Fletcher

Weather History for KCKM - October, 2019

Change the Weather History Date:

Thursday, October 17, 2019

  Actual Average (KUOX) Record (KUOX)
Temperature  
Mean Temperature 54 °F -  
Max Temperature 66 °F 73 °F 92 °F (1953)
Min Temperature 41 °F 47 °F 29 °F (1943)
Degree Days  
Heating Degree Days 12    
Growing Degree Days 4 (Base 50)    
Moisture  
Dew Point 46 °F    
Average Humidity 79    
Maximum Humidity 100    
Minimum Humidity 43    
Precipitation  
Precipitation 0.00 in - - ()
Sea Level Pressure  
Sea Level Pressure 30.06 in    
Wind  
Wind Speed 1 mph ()    
Max Wind Speed 8 mph    
Max Gust Speed 15 mph    
Visibility 9.3 miles    
Events      
Averages and records for this station are not official NWS values.
T = Trace of Precipitation, MM = Missing Value Source: Averaged Metar Reports

Daily Weather History Graph

Daily Weather History Graph

Search for Another Location

Airport or City:

Astronomy

Oct. 17, 2019 Rise Set
Actual Time 7:08 AM CDT 6:25 PM CDT
Civil Twilight 6:43 AM CDT 6:50 PM CDT
Nautical Twilight 6:14 AM CDT 7:19 PM CDT
Astronomical Twilight 5:45 AM CDT 7:48 PM CDT
Moon 9:05 PM CDT (10/17) 10:33 AM CDT (10/17)
Length of Visible Light 12h 07m
Length of Day
11h 16m
Waning Gibbous, 86% of the Moon is Illuminated
Oct 17
Waning Gibbous
Oct 21
Last Quarter
Oct 27
New
Nov 4
First Quarter
Nov 12
Full

Hourly Weather History & Observations

Time (CDT) Temp. Dew Point Humidity Pressure Visibility Wind Dir Wind Speed Gust Speed Precip Events Conditions
12:35 AM 48.2 °F 48.2 °F 100% 30.09 in 10.0 mi Calm Calm - N/A   Unknown
12:55 AM 46.4 °F 46.4 °F 100% 30.09 in 7.0 mi Calm Calm - N/A   Unknown
1:15 AM 46.4 °F 46.4 °F 100% 30.10 in 10.0 mi Calm Calm - N/A   Unknown
1:35 AM 46.4 °F 46.4 °F 100% 30.10 in 9.0 mi Calm Calm - N/A   Unknown
2:15 AM 46.4 °F 46.4 °F 100% 30.08 in 5.0 mi Calm Calm - N/A   Mist
2:35 AM 46.4 °F 46.4 °F 100% 30.08 in 5.0 mi Calm Calm - N/A   Mist
2:55 AM 44.6 °F 44.6 °F 100% 30.08 in 10.0 mi Calm Calm - N/A   Unknown
3:15 AM 44.6 °F 44.6 °F 100% 30.07 in 10.0 mi Calm Calm - N/A   Unknown
3:55 AM 44.6 °F 44.6 °F 100% 30.09 in 4.0 mi Calm Calm - N/A   Mist
4:15 AM 44.6 °F 44.6 °F 100% 30.09 in 7.0 mi Calm Calm - N/A   Unknown
4:35 AM 44.6 °F 44.6 °F 100% 30.09 in 10.0 mi Calm Calm - N/A   Unknown
4:55 AM 42.8 °F 42.8 °F 100% 30.09 in 10.0 mi Calm Calm - N/A   Unknown
5:15 AM 42.8 °F 42.8 °F 100% 30.09 in 6.0 mi Calm Calm - N/A   Mist
5:35 AM 44.6 °F 44.6 °F 100% 30.10 in 10.0 mi Calm Calm - N/A   Unknown
5:55 AM 44.6 °F 44.6 °F 100% 30.10 in 10.0 mi Calm Calm - N/A   Unknown
6:15 AM 42.8 °F 42.8 °F 100% 30.10 in 10.0 mi Calm Calm - N/A   Unknown
6:35 AM 42.8 °F 42.8 °F 100% 30.10 in 10.0 mi Calm Calm - N/A   Unknown
6:55 AM 42.8 °F 42.8 °F 100% 30.10 in 10.0 mi Calm Calm - N/A   Unknown
7:15 AM 42.8 °F 42.8 °F 100% 30.11 in 10.0 mi Calm Calm - N/A   Unknown
7:35 AM 41.0 °F 41.0 °F 100% 30.11 in 10.0 mi Calm Calm - N/A   Unknown
8:15 AM 46.4 °F 46.4 °F 100% 30.12 in 10.0 mi Calm Calm - N/A   Unknown
8:35 AM 46.4 °F 46.4 °F 100% 30.13 in 10.0 mi Calm Calm - N/A   Unknown
8:55 AM 48.2 °F 48.2 °F 100% 30.13 in 10.0 mi Calm Calm - N/A   Unknown
9:15 AM 50.0 °F 50.0 °F 100% 30.13 in 10.0 mi ENE 3.5 mph - N/A   Unknown
9:35 AM 51.8 °F 48.2 °F 88% 30.14 in 10.0 mi East 4.6 mph - N/A   Unknown
9:55 AM 53.6 °F 46.4 °F 77% 30.14 in 10.0 mi East 6.9 mph - N/A   Unknown
10:35 AM 57.2 °F 44.6 °F 63% 30.14 in 10.0 mi SE 5.8 mph - N/A   Unknown
10:55 AM 57.2 °F 44.6 °F 63% 30.13 in 10.0 mi ESE 3.5 mph - N/A   Unknown
11:15 AM 59.0 °F 44.6 °F 59% 30.12 in 10.0 mi ENE 5.8 mph - N/A   Unknown
11:35 AM 59.0 °F 44.6 °F 59% 30.12 in 10.0 mi Calm Calm - N/A   Unknown
11:55 AM 60.8 °F 42.8 °F 52% 30.11 in 10.0 mi Calm Calm - N/A   Unknown
12:35 PM 62.6 °F 44.6 °F 52% 30.10 in 10.0 mi Calm Calm - N/A   Unknown
12:55 PM 62.6 °F 42.8 °F 48% 30.08 in 10.0 mi NNW 5.8 mph - N/A   Unknown
1:35 PM 64.4 °F 44.6 °F 49% 30.07 in 10.0 mi Calm Calm - N/A   Unknown
1:55 PM 66.2 °F 44.6 °F 46% 30.06 in 10.0 mi Calm Calm - N/A   Unknown
2:15 PM 64.4 °F 42.8 °F 45% 30.04 in 10.0 mi North 6.9 mph 15.0 mph N/A   Unknown
2:35 PM 66.2 °F 44.6 °F 46% 30.04 in 10.0 mi Variable 4.6 mph - N/A   Unknown
2:55 PM 66.2 °F 44.6 °F 46% 30.03 in 10.0 mi Calm Calm - N/A   Unknown
3:35 PM 66.2 °F 44.6 °F 46% 30.03 in - North 6.9 mph - N/A   Unknown
3:55 PM 66.2 °F 42.8 °F 43% 30.02 in 10.0 mi Calm Calm - N/A   Unknown
4:15 PM 66.2 °F 44.6 °F 46% 30.02 in 10.0 mi Calm Calm - N/A   Unknown
4:35 PM 66.2 °F 44.6 °F 46% 30.02 in 10.0 mi East 4.6 mph - N/A   Unknown
4:55 PM 66.2 °F 44.6 °F 46% 30.02 in 10.0 mi Calm Calm - N/A   Unknown
5:15 PM 66.2 °F 44.6 °F 46% 30.02 in 10.0 mi Calm Calm - N/A   Unknown
5:35 PM 64.4 °F 44.6 °F 49% 30.01 in 10.0 mi Calm Calm - N/A   Unknown
5:55 PM 62.6 °F 44.6 °F 52% 30.01 in 10.0 mi North 5.8 mph - N/A   Unknown
6:15 PM 60.8 °F 44.6 °F 55% 30.01 in 10.0 mi North 8.1 mph - N/A   Unknown
6:35 PM 59.0 °F 46.4 °F 63% 30.01 in 10.0 mi NNE 3.5 mph - N/A   Unknown
6:55 PM 59.0 °F 46.4 °F 63% 30.02 in 10.0 mi Calm Calm - N/A   Unknown
7:15 PM 55.4 °F 48.2 °F 77% 30.01 in 10.0 mi North 6.9 mph - N/A   Unknown
7:35 PM 55.4 °F 48.2 °F 77% 30.01 in 10.0 mi Calm Calm - N/A   Unknown
7:55 PM 53.6 °F 48.2 °F 82% 30.00 in 10.0 mi Calm Calm - N/A   Unknown
8:15 PM 53.6 °F 48.2 °F 82% 30.00 in 10.0 mi NNE 4.6 mph - N/A   Unknown
8:35 PM 51.8 °F 50.0 °F 94% 30.00 in 10.0 mi Calm Calm - N/A   Unknown
8:55 PM 53.6 °F 50.0 °F 88% 30.00 in 10.0 mi Calm Calm - N/A   Unknown
9:15 PM 53.6 °F 50.0 °F 88% 30.01 in 10.0 mi Calm Calm - N/A   Unknown
9:35 PM 53.6 °F 50.0 °F 88% 30.01 in 8.0 mi Calm Calm - N/A   Unknown
9:55 PM 51.8 °F 50.0 °F 94% 30.01 in 10.0 mi Calm Calm - N/A   Unknown
10:15 PM 51.8 °F 50.0 °F 94% 30.01 in 9.0 mi Calm Calm - N/A   Unknown
10:55 PM 51.8 °F 50.0 °F 94% 30.02 in 6.0 mi Calm Calm - N/A   Mist
11:15 PM 51.8 °F 50.0 °F 94% 30.02 in 6.0 mi Calm Calm - N/A   Mist
11:35 PM 50.0 °F 50.0 °F 100% 30.01 in 6.0 mi Calm Calm - N/A   Mist
11:55 PM 50.0 °F 48.2 °F 94% 30.01 in 9.0 mi Calm Calm - N/A   Unknown